createdAt,value
2023-01-26T00:01:21.160Z,6.87
2023-01-26T00:03:49.525Z,7.00
2023-01-26T00:06:18.828Z,6.93
2023-01-26T00:08:48.323Z,6.91
2023-01-26T00:11:18.509Z,6.89
2023-01-26T00:13:46.250Z,6.91
2023-01-26T00:16:14.767Z,6.86
2023-01-26T00:18:43.520Z,6.87
2023-01-26T00:21:15.867Z,6.87
2023-01-26T00:23:43.667Z,6.96
2023-01-26T00:26:14.434Z,6.93
2023-01-26T00:28:42.083Z,6.85
2023-01-26T00:31:18.247Z,6.89
2023-01-26T00:33:45.968Z,6.84
2023-01-26T00:36:13.707Z,7.00
2023-01-26T00:38:41.701Z,6.94
2023-01-26T00:41:09.548Z,6.95
2023-01-26T00:43:37.230Z,6.91
2023-01-26T00:46:04.828Z,6.66
2023-01-26T00:48:32.241Z,6.75
2023-01-26T00:51:00.761Z,6.82
2023-01-26T00:53:28.850Z,6.90
2023-01-26T00:55:58.109Z,6.87
2023-01-26T00:58:25.839Z,6.91
2023-01-26T01:00:53.590Z,6.72
2023-01-26T01:03:21.032Z,6.77
2023-01-26T01:05:48.656Z,6.76
2023-01-26T01:08:16.004Z,6.87
2023-01-26T01:10:43.579Z,6.75
2023-01-26T01:13:11.235Z,6.64
2023-01-26T01:15:40.440Z,6.75
2023-01-26T01:18:08.094Z,6.70
2023-01-26T01:20:35.769Z,6.59
2023-01-26T01:23:03.161Z,6.77
2023-01-26T01:25:30.590Z,6.73
2023-01-26T01:27:58.265Z,6.74
2023-01-26T01:30:25.660Z,6.61
2023-01-26T01:32:53.508Z,6.76
2023-01-26T01:35:21.202Z,6.67
2023-01-26T01:37:49.148Z,6.76
2023-01-26T01:40:16.492Z,6.74
2023-01-26T01:42:50.183Z,6.84
2023-01-26T01:45:26.466Z,6.82
2023-01-26T01:47:59.568Z,6.82
2023-01-26T01:50:27.581Z,6.69
2023-01-26T01:52:56.195Z,6.82
2023-01-26T01:55:25.585Z,6.85
2023-01-26T01:57:55.717Z,6.83
2023-01-26T02:00:24.286Z,6.85
2023-01-26T02:03:11.535Z,6.71
2023-01-26T02:05:50.928Z,6.73
2023-01-26T02:08:20.119Z,6.75
2023-01-26T02:10:49.767Z,6.76
2023-01-26T02:13:18.562Z,6.66
2023-01-26T02:15:46.879Z,6.65
2023-01-26T02:18:14.314Z,6.48
2023-01-26T02:20:55.557Z,6.39
2023-01-26T02:23:32.176Z,6.46
2023-01-26T02:26:20.481Z,6.41
2023-01-26T02:28:48.871Z,6.57
2023-01-26T02:31:17.724Z,6.75
2023-01-26T02:33:45.918Z,6.66
2023-01-26T02:36:21.884Z,6.69
2023-01-26T02:38:58.484Z,6.73
2023-01-26T02:41:44.748Z,6.72
2023-01-26T02:44:12.804Z,6.75
2023-01-26T02:46:40.672Z,6.74
2023-01-26T02:49:26.600Z,6.58
2023-01-26T02:51:54.352Z,6.57
2023-01-26T02:54:40.371Z,6.69
2023-01-26T02:57:08.389Z,6.66
2023-01-26T02:59:35.737Z,6.67
2023-01-26T03:02:03.221Z,6.59
2023-01-26T03:04:30.911Z,6.58
2023-01-26T03:06:58.393Z,6.61
2023-01-26T03:09:25.759Z,6.74
2023-01-26T03:11:53.403Z,6.73
2023-01-26T03:14:20.788Z,6.63
2023-01-26T03:16:49.757Z,6.72
2023-01-26T03:19:36.241Z,6.77
2023-01-26T03:22:24.780Z,6.84
2023-01-26T03:25:10.887Z,6.86
2023-01-26T03:27:44.712Z,6.69
2023-01-26T03:30:15.093Z,6.65
2023-01-26T03:32:43.551Z,6.66
2023-01-26T03:35:15.159Z,6.64
2023-01-26T03:37:46.641Z,6.75
2023-01-26T03:40:35.063Z,6.51
2023-01-26T03:43:26.304Z,6.61
2023-01-26T03:46:12.827Z,6.52
2023-01-26T03:48:59.305Z,6.47
2023-01-26T03:51:45.104Z,6.57
2023-01-26T03:54:31.746Z,6.70
2023-01-26T03:56:59.810Z,6.69
2023-01-26T03:59:39.881Z,6.42
2023-01-26T04:02:27.952Z,6.51
2023-01-26T04:05:14.852Z,6.53
2023-01-26T04:08:01.254Z,6.69
2023-01-26T04:10:29.337Z,6.61
2023-01-26T04:13:15.144Z,6.48
2023-01-26T04:16:02.021Z,6.60
2023-01-26T04:18:47.806Z,6.57
2023-01-26T04:21:33.422Z,6.48
2023-01-26T04:24:02.236Z,6.55
2023-01-26T04:26:37.604Z,6.52
2023-01-26T04:29:13.688Z,6.40
2023-01-26T04:31:42.381Z,6.46
2023-01-26T04:34:13.244Z,6.70
2023-01-26T04:36:42.181Z,6.78
2023-01-26T04:39:10.247Z,6.59
2023-01-26T04:41:40.107Z,6.48
2023-01-26T04:44:09.197Z,6.40
2023-01-26T04:46:36.674Z,6.48
2023-01-26T04:49:04.324Z,6.52
2023-01-26T04:51:32.125Z,6.47
2023-01-26T04:53:59.565Z,6.65
2023-01-26T04:56:30.178Z,6.58
2023-01-26T04:59:06.196Z,6.61
2023-01-26T05:01:34.243Z,6.57
2023-01-26T05:04:04.350Z,6.56
2023-01-26T05:06:32.845Z,6.50
2023-01-26T05:09:00.281Z,6.59
2023-01-26T05:11:28.066Z,6.67
2023-01-26T05:13:55.609Z,6.59
2023-01-26T05:16:23.177Z,6.55
2023-01-26T05:18:51.045Z,6.60
2023-01-26T05:21:18.603Z,6.51
2023-01-26T05:23:46.141Z,6.57
2023-01-26T05:26:14.447Z,6.74
2023-01-26T05:28:43.517Z,6.74
2023-01-26T05:31:11.003Z,6.61
2023-01-26T05:33:38.752Z,6.67
2023-01-26T05:36:08.193Z,6.57
2023-01-26T05:38:35.894Z,6.63
2023-01-26T05:41:04.031Z,6.52
2023-01-26T05:43:33.524Z,6.57
2023-01-26T05:46:04.153Z,6.58
2023-01-26T05:48:31.723Z,6.57
2023-01-26T05:50:59.156Z,6.56
2023-01-26T05:53:26.978Z,6.59
2023-01-26T05:55:54.577Z,6.55
2023-01-26T05:58:22.200Z,6.68
2023-01-26T06:00:49.972Z,6.59
2023-01-26T06:03:19.058Z,6.57
2023-01-26T06:05:53.757Z,6.64
2023-01-26T06:08:22.136Z,6.65
2023-01-26T06:10:49.870Z,6.65
2023-01-26T06:13:17.340Z,6.59
2023-01-26T06:15:45.052Z,6.56
2023-01-26T06:18:12.612Z,6.60
2023-01-26T06:20:44.202Z,6.58
2023-01-26T06:23:12.617Z,6.67
2023-01-26T06:25:40.369Z,6.68
2023-01-26T06:28:08.092Z,6.70
2023-01-26T06:30:36.061Z,6.59
2023-01-26T06:33:06.927Z,6.65
2023-01-26T06:35:36.037Z,6.58
2023-01-26T06:38:04.112Z,6.66
2023-01-26T06:40:31.622Z,6.57
2023-01-26T06:42:59.061Z,6.62
2023-01-26T06:45:27.076Z,6.68
2023-01-26T06:47:55.293Z,6.70
2023-01-26T06:50:26.437Z,6.61
2023-01-26T06:52:56.687Z,6.64
2023-01-26T06:55:35.060Z,6.61
2023-01-26T06:58:05.989Z,6.64
2023-01-26T07:00:33.688Z,6.59
2023-01-26T07:03:01.232Z,6.69
2023-01-26T07:05:28.898Z,6.67
2023-01-26T07:07:56.292Z,6.64
2023-01-26T07:10:23.680Z,6.77
2023-01-26T07:12:51.452Z,6.64
2023-01-26T07:15:18.872Z,6.55
2023-01-26T07:17:46.296Z,6.58
2023-01-26T07:20:14.523Z,6.68
2023-01-26T07:22:41.946Z,6.60
2023-01-26T07:25:09.439Z,6.67
2023-01-26T07:27:37.091Z,6.67
2023-01-26T07:30:05.405Z,6.57
2023-01-26T07:32:32.769Z,6.60
2023-01-26T07:35:00.484Z,6.67
2023-01-26T07:37:29.030Z,6.66
2023-01-26T07:39:56.737Z,6.66
2023-01-26T07:42:24.391Z,6.76
2023-01-26T07:44:56.803Z,6.86
2023-01-26T07:47:24.474Z,6.88
2023-01-26T07:49:51.893Z,6.94
2023-01-26T07:52:19.338Z,6.90
2023-01-26T07:54:46.965Z,6.95
2023-01-26T07:57:14.602Z,6.77
2023-01-26T07:59:42.388Z,6.73
2023-01-26T08:02:10.587Z,6.76
2023-01-26T08:04:38.224Z,6.73
2023-01-26T08:07:05.660Z,6.83
2023-01-26T08:09:33.164Z,6.82
2023-01-26T08:12:01.457Z,6.87
2023-01-26T08:14:38.361Z,6.91
2023-01-26T08:17:13.753Z,6.95
2023-01-26T08:19:41.131Z,6.95
2023-01-26T08:22:08.682Z,6.92
2023-01-26T08:24:36.348Z,6.94
2023-01-26T08:27:03.852Z,6.87
2023-01-26T08:29:31.276Z,7.00
2023-01-26T08:31:58.987Z,6.99
2023-01-26T08:34:26.634Z,6.91
2023-01-26T08:36:53.984Z,6.89
2023-01-26T08:39:21.600Z,6.97
2023-01-26T08:41:49.072Z,6.93
2023-01-26T08:44:16.671Z,7.01
2023-01-26T08:46:44.657Z,6.97
2023-01-26T08:49:12.089Z,6.99
2023-01-26T08:51:39.434Z,6.96
2023-01-26T08:54:08.287Z,7.22
2023-01-26T08:56:35.924Z,7.03
2023-01-26T08:59:03.287Z,7.08
2023-01-26T09:01:31.080Z,6.95
2023-01-26T09:03:58.583Z,7.01
2023-01-26T09:06:27.676Z,6.89
2023-01-26T09:08:55.310Z,6.90
2023-01-26T09:11:22.905Z,6.80
2023-01-26T09:13:56.595Z,6.87
2023-01-26T09:16:24.919Z,6.93
2023-01-26T09:18:53.592Z,6.96
2023-01-26T09:21:21.982Z,6.96
2023-01-26T09:23:50.070Z,6.91
2023-01-26T09:26:17.546Z,6.83
2023-01-26T09:28:44.982Z,6.93
2023-01-26T09:31:12.785Z,6.93
2023-01-26T09:33:40.439Z,7.03
2023-01-26T09:36:10.119Z,7.02
2023-01-26T09:38:38.776Z,7.21
2023-01-26T09:41:18.221Z,7.03
2023-01-26T09:43:57.768Z,7.03
2023-01-26T09:46:32.705Z,7.01
2023-01-26T09:49:11.608Z,7.08
2023-01-26T09:52:00.586Z,7.02
2023-01-26T09:54:32.760Z,7.03
2023-01-26T09:57:13.618Z,7.03
2023-01-26T09:59:51.339Z,6.91
2023-01-26T10:02:46.973Z,6.97
2023-01-26T10:05:21.712Z,7.09
2023-01-26T10:07:49.063Z,7.13
2023-01-26T10:10:22.535Z,7.14
2023-01-26T10:12:51.710Z,7.12
2023-01-26T10:15:30.922Z,7.08
2023-01-26T10:18:02.105Z,7.26
2023-01-26T10:20:33.186Z,7.18
2023-01-26T10:23:12.578Z,7.10
2023-01-26T10:25:41.597Z,7.15
2023-01-26T10:28:14.554Z,6.88
2023-01-26T10:30:43.757Z,6.95
2023-01-26T10:33:26.720Z,6.78
2023-01-26T10:35:54.600Z,6.87
2023-01-26T10:38:33.980Z,6.88
2023-01-26T10:41:04.036Z,6.97
2023-01-26T10:43:36.205Z,7.02
2023-01-26T10:46:04.712Z,7.04
2023-01-26T10:48:32.481Z,7.11
2023-01-26T10:51:15.440Z,6.99
2023-01-26T10:53:43.055Z,6.98
2023-01-26T10:56:17.179Z,6.94
2023-01-26T10:58:48.434Z,7.12
2023-01-26T11:01:18.849Z,7.28
2023-01-26T11:04:04.614Z,7.17
2023-01-26T11:06:32.496Z,7.09
2023-01-26T11:09:15.363Z,7.07
2023-01-26T11:11:44.799Z,7.21
2023-01-26T11:14:16.730Z,7.11
2023-01-26T11:16:47.798Z,7.09
2023-01-26T11:19:45.103Z,7.13
2023-01-26T11:22:19.489Z,7.20
2023-01-26T11:25:08.099Z,7.26
2023-01-26T11:28:00.519Z,7.28
2023-01-26T11:30:45.258Z,7.16
2023-01-26T11:33:35.603Z,7.09
2023-01-26T11:36:09.805Z,7.12
2023-01-26T11:38:43.107Z,7.37
2023-01-26T11:41:56.367Z,7.12
2023-01-26T11:44:42.336Z,7.08
2023-01-26T11:47:22.804Z,7.22
2023-01-26T11:57:50.353Z,7.28
2023-01-26T12:00:56.753Z,7.08
2023-01-26T12:03:53.437Z,6.92
2023-01-26T12:07:01.922Z,7.06
2023-01-26T12:10:10.166Z,7.23
2023-01-26T12:24:12.853Z,7.06
2023-01-26T12:35:28.304Z,7.14
2023-01-26T12:38:52.931Z,7.14
2023-01-26T12:42:12.407Z,7.47
2023-01-26T12:53:10.019Z,7.00
2023-01-26T13:11:55.368Z,7.26
2023-01-26T13:15:06.323Z,7.23
2023-01-26T13:22:16.595Z,7.23
2023-01-26T13:25:39.141Z,7.14
2023-01-26T13:32:29.850Z,6.90
2023-01-26T13:36:13.958Z,6.93
2023-01-26T13:40:04.527Z,7.01
2023-01-26T13:43:01.842Z,7.03
2023-01-26T13:47:03.208Z,6.82
2023-01-26T13:50:05.340Z,6.99
2023-01-26T13:57:22.809Z,6.93
2023-01-26T14:03:34.329Z,6.75
2023-01-26T14:06:42.487Z,6.86
2023-01-26T14:16:19.044Z,6.72
2023-01-26T14:19:42.570Z,6.63
2023-01-26T14:33:57.762Z,6.72
2023-01-26T14:37:23.669Z,6.73
2023-01-26T14:43:59.545Z,6.82
2023-01-26T14:47:17.510Z,6.81
2023-01-26T14:54:20.129Z,6.67
2023-01-26T15:01:27.280Z,6.68
2023-01-26T15:04:43.946Z,6.59
2023-01-26T15:28:41.952Z,6.66
2023-01-26T15:35:16.768Z,6.60
2023-01-26T15:38:03.984Z,6.49
2023-01-26T15:52:27.472Z,6.65
2023-01-26T15:55:41.762Z,6.68
2023-01-26T16:02:07.286Z,6.73
2023-01-26T16:05:15.075Z,6.93
2023-01-26T16:11:28.896Z,6.52
2023-01-26T16:14:34.992Z,6.64
2023-01-26T16:17:39.960Z,6.63
2023-01-26T16:21:41.914Z,6.57
2023-01-26T16:25:27.316Z,6.70
2023-01-26T16:28:58.080Z,6.75
2023-01-26T16:32:20.699Z,6.49
2023-01-26T16:35:17.875Z,6.37
2023-01-26T16:45:54.604Z,6.57
2023-01-26T16:58:59.127Z,6.55
2023-01-26T17:02:22.333Z,6.74
2023-01-26T17:06:27.465Z,6.49
2023-01-26T17:09:29.669Z,6.44
2023-01-26T17:12:35.012Z,6.48
2023-01-26T17:15:57.703Z,6.48
2023-01-26T17:19:08.991Z,6.42
2023-01-26T17:22:15.300Z,6.47
2023-01-26T17:25:22.869Z,6.57
2023-01-26T17:28:27.736Z,6.56
2023-01-26T17:42:21.335Z,6.55
2023-01-26T17:45:27.785Z,6.69
2023-01-26T17:48:51.302Z,6.59
2023-01-26T17:51:40.304Z,6.44
2023-01-26T18:04:09.386Z,6.43
2023-01-26T18:07:33.834Z,6.48
2023-01-26T18:16:58.102Z,6.49
2023-01-26T18:19:25.842Z,6.44
2023-01-26T18:21:53.285Z,6.36
2023-01-26T18:24:20.733Z,6.27
2023-01-26T18:27:27.976Z,6.20
2023-01-26T18:30:52.194Z,6.31
2023-01-26T18:43:48.369Z,6.26
2023-01-26T18:46:16.285Z,6.27
2023-01-26T18:48:44.148Z,6.25
2023-01-26T18:51:11.743Z,6.39
2023-01-26T18:53:40.205Z,6.14
2023-01-26T18:56:10.388Z,6.19
2023-01-26T18:58:39.378Z,6.13
2023-01-26T19:01:10.714Z,6.24
2023-01-26T19:03:41.692Z,6.22
2023-01-26T19:06:10.002Z,6.28
2023-01-26T19:08:38.177Z,6.30
2023-01-26T19:11:07.009Z,6.23
2023-01-26T19:13:35.376Z,6.19
2023-01-26T19:16:03.345Z,6.27
2023-01-26T19:18:30.747Z,6.30
2023-01-26T19:21:00.238Z,6.28
2023-01-26T19:23:28.077Z,6.30
2023-01-26T19:25:56.227Z,6.18
2023-01-26T19:28:25.265Z,6.36
2023-01-26T19:31:02.310Z,6.27
2023-01-26T19:33:31.744Z,6.27
2023-01-26T19:36:02.866Z,6.06
2023-01-26T19:38:33.302Z,6.10
2023-01-26T19:41:02.443Z,6.21
2023-01-26T19:43:30.356Z,6.18
2023-01-26T19:45:57.977Z,6.28
2023-01-26T19:48:26.863Z,6.05
2023-01-26T19:50:59.915Z,5.85
2023-01-26T19:53:28.189Z,5.95
2023-01-26T19:55:56.608Z,6.07
2023-01-26T19:58:24.372Z,6.08
2023-01-26T20:00:58.374Z,6.23
2023-01-26T20:03:26.609Z,6.29
2023-01-26T20:05:56.699Z,6.20
2023-01-26T20:08:26.464Z,6.25
2023-01-26T20:10:54.492Z,6.36
2023-01-26T20:13:24.648Z,6.27
2023-01-26T20:15:58.392Z,6.28
2023-01-26T20:18:26.767Z,6.28
2023-01-26T20:20:55.877Z,6.38
2023-01-26T20:23:23.829Z,6.48
2023-01-26T20:25:54.282Z,6.46
2023-01-26T20:28:23.101Z,6.36
2023-01-26T20:30:55.532Z,6.31
2023-01-26T20:33:23.033Z,6.38
2023-01-26T20:35:52.057Z,6.31
2023-01-26T20:38:19.780Z,6.36
2023-01-26T20:40:47.366Z,6.37
2023-01-26T20:43:15.917Z,6.32
2023-01-26T20:45:44.227Z,6.36
2023-01-26T20:48:12.244Z,6.29
2023-01-26T20:50:41.579Z,6.02
2023-01-26T20:53:11.631Z,6.22
2023-01-26T20:55:39.345Z,6.30
2023-01-26T20:58:07.151Z,6.27
2023-01-26T21:00:36.076Z,6.19
2023-01-26T21:03:03.596Z,6.13
2023-01-26T21:05:31.115Z,6.12
2023-01-26T21:07:58.800Z,6.19
2023-01-26T21:10:26.384Z,6.14
2023-01-26T21:12:53.799Z,6.14
2023-01-26T21:15:21.497Z,6.12
2023-01-26T21:17:48.915Z,6.22
2023-01-26T21:20:16.477Z,6.23
2023-01-26T21:22:44.328Z,6.22
2023-01-26T21:25:12.276Z,6.09
2023-01-26T21:27:39.657Z,6.28
2023-01-26T21:30:07.822Z,6.32
2023-01-26T21:32:35.286Z,6.35
2023-01-26T21:35:02.676Z,6.32
2023-01-26T21:37:30.369Z,6.33
2023-01-26T21:39:57.977Z,6.18
2023-01-26T21:42:25.417Z,6.21
2023-01-26T21:45:12.485Z,6.31
2023-01-26T21:47:41.070Z,6.35
2023-01-26T21:50:09.388Z,6.31
2023-01-26T21:52:55.318Z,6.23
2023-01-26T21:55:23.038Z,6.23
2023-01-26T21:58:08.783Z,6.13
2023-01-26T22:00:36.588Z,6.20
2023-01-26T22:03:04.233Z,6.13
2023-01-26T22:05:31.627Z,6.17
2023-01-26T22:07:59.024Z,5.82
2023-01-26T22:10:26.666Z,5.91
2023-01-26T22:12:54.028Z,6.08
2023-01-26T22:15:21.428Z,6.18
2023-01-26T22:17:50.471Z,6.07
2023-01-26T22:20:17.919Z,6.01
2023-01-26T22:22:45.298Z,5.93
2023-01-26T22:25:13.078Z,5.96
2023-01-26T22:27:41.015Z,5.90
2023-01-26T22:30:09.216Z,5.94
2023-01-26T22:32:36.885Z,5.90
2023-01-26T22:35:04.539Z,5.76
2023-01-26T22:37:31.963Z,5.64
2023-01-26T22:39:59.641Z,5.86
2023-01-26T22:42:27.051Z,5.86
2023-01-26T22:44:54.652Z,5.72
2023-01-26T22:47:22.415Z,5.74
2023-01-26T22:49:49.793Z,5.83
2023-01-26T22:52:17.177Z,5.77
2023-01-26T22:54:44.891Z,5.81
2023-01-26T22:57:12.259Z,5.91
2023-01-26T22:59:39.765Z,5.77
2023-01-26T23:02:07.641Z,5.78
2023-01-26T23:04:35.031Z,5.87
2023-01-26T23:07:02.393Z,5.86
2023-01-26T23:09:30.175Z,5.85
2023-01-26T23:12:01.513Z,5.92
2023-01-26T23:14:29.846Z,5.76
2023-01-26T23:16:58.161Z,5.82
2023-01-26T23:19:25.707Z,5.60
2023-01-26T23:21:53.313Z,5.65
2023-01-26T23:24:21.094Z,5.77
2023-01-26T23:26:48.452Z,5.78
2023-01-26T23:29:15.816Z,5.86
2023-01-26T23:31:43.742Z,5.72
2023-01-26T23:34:11.182Z,5.71
2023-01-26T23:36:38.676Z,5.73
2023-01-26T23:39:06.393Z,5.67
2023-01-26T23:41:33.771Z,5.72
2023-01-26T23:44:01.261Z,5.91
2023-01-26T23:46:29.142Z,5.86
2023-01-26T23:48:56.605Z,5.92
2023-01-26T23:51:24.034Z,5.76
2023-01-26T23:53:51.747Z,5.81
2023-01-26T23:56:19.227Z,5.78
2023-01-26T23:58:46.620Z,5.67
